Time;durP1;ratioP1;P1;durP2;ratioP2;P2;SDS_P1;SDS_P2;PMS_P1;PMS_P2;Temp;Humidity;BMP_temperature;BMP_pressure;BME280_temperature;BME280_humidity;BME280_pressure;Samples;Min_cycle;Max_cycle;Signal;HPM_P1;HPM_P2
2022/10/19 00:00:32;;;;;;;2.45;2.05;;;;;;;7.02;63.06;62725.81;4962326;29;20237;-74
2022/10/19 00:02:58;;;;;;;2.58;2.38;;;;;;;7.00;63.38;62718.69;4967669;28;20235;-74
2022/10/19 00:05:25;;;;;;;2.85;2.60;;;;;;;6.91;63.54;62711.41;4966335;29;20204;-73
2022/10/19 00:07:54;;;;;;;4.30;2.50;;;;;;;6.89;63.96;62711.88;4966467;29;20232;-75
2022/10/19 00:10:21;;;;;;;2.47;2.28;;;;;;;6.84;64.35;62704.72;4964979;29;20208;-74
2022/10/19 00:12:48;;;;;;;2.22;1.85;;;;;;;6.86;64.50;62709.31;4967745;28;20538;-74
2022/10/19 00:15:15;;;;;;;2.08;1.98;;;;;;;6.87;64.32;62705.28;4948430;29;20205;-73
2022/10/19 00:17:43;;;;;;;3.47;2.08;;;;;;;6.84;64.65;62699.66;4961725;28;20295;-74
2022/10/19 00:20:10;;;;;;;1.83;1.73;;;;;;;6.85;64.90;62700.66;4964349;29;20232;-75
2022/10/19 00:22:37;;;;;;;3.15;1.95;;;;;;;6.83;64.76;62700.63;4964603;28;20552;-75
2022/10/19 00:25:07;;;;;;;1.50;1.45;;;;;;;6.83;66.22;62701.13;4962429;29;20280;-75
2022/10/19 00:27:34;;;;;;;1.63;1.52;;;;;;;6.79;64.95;62699.56;4965918;29;20227;-74
2022/10/19 00:30:01;;;;;;;1.95;1.80;;;;;;;6.75;64.89;62692.88;4965602;29;20204;-75
2022/10/19 00:32:28;;;;;;;2.10;1.90;;;;;;;6.74;64.75;62696.94;4965684;29;20231;-76
2022/10/19 00:34:55;;;;;;;1.35;1.33;;;;;;;6.75;65.08;62689.84;4966054;29;20240;-75
2022/10/19 00:37:22;;;;;;;1.70;1.60;;;;;;;6.78;65.11;62701.03;4968461;28;20225;-75
2022/10/19 00:39:49;;;;;;;1.70;1.60;;;;;;;6.77;65.22;62694.44;4966735;29;20224;-74
2022/10/19 00:42:17;;;;;;;1.60;1.50;;;;;;;6.83;65.20;62706.19;4966827;29;20260;-76
2022/10/19 00:45:12;;;;;;;1.65;1.55;;;;;;;6.78;65.11;62698.50;4964030;29;20208;-75
2022/10/19 00:47:39;;;;;;;2.28;1.75;;;;;;;6.80;65.54;62700.06;4963683;28;20275;-75
2022/10/19 00:50:08;;;;;;;2.40;2.20;;;;;;;6.84;66.61;62707.25;4966286;29;20208;-74
2022/10/19 00:52:35;;;;;;;2.63;2.33;;;;;;;6.88;67.03;62708.31;4961643;28;20221;-75
2022/10/19 00:55:02;;;;;;;3.38;2.10;;;;;;;6.79;67.37;62699.03;4964368;29;20495;-76
2022/10/19 00:57:32;;;;;;;2.50;2.22;;;;;;;6.75;67.76;62697.44;4967063;28;20361;-76
2022/10/19 01:00:02;;;;;;;2.13;2.03;;;;;;;6.76;68.53;62695.94;4967496;29;20526;-74
2022/10/19 01:02:29;;;;;;;7.72;1.88;;;;;;;6.74;68.98;62693.88;4964852;28;20220;-74
2022/10/19 01:04:56;;;;;;;2.25;2.15;;;;;;;6.71;69.78;62693.81;4962356;29;20216;-76
2022/10/19 01:07:24;;;;;;;3.47;1.95;;;;;;;6.75;69.55;62694.91;4965592;28;20221;-75
2022/10/19 01:09:51;;;;;;;2.13;2.03;;;;;;;6.67;70.56;62687.19;4965119;29;20222;-77
2022/10/19 01:12:56;;;;;;;2.97;1.80;;;;;;;6.64;70.92;62683.56;4947496;29;20264;-74
2022/10/19 01:15:32;;;;;;;3.00;1.70;;;;;;;6.60;69.81;62676.91;4949153;29;20201;-74
2022/10/19 01:18:06;;;;;;;1.92;1.70;;;;;;;6.69;68.23;62686.72;4964405;28;20556;-74
2022/10/19 01:21:12;;;;;;;1.90;1.80;;;;;;;6.64;68.53;62686.09;4950458;29;20224;-74
2022/10/19 01:24:19;;;;;;;3.85;1.95;;;;;;;6.66;68.75;62680.56;4963120;28;20276;-74
2022/10/19 01:27:16;;;;;;;2.22;2.05;;;;;;;6.61;69.35;62680.47;4964211;29;20510;-74
2022/10/19 01:30:05;;;;;;;2.28;2.08;;;;;;;6.61;69.23;62680.97;4949474;29;20196;-75
2022/10/19 01:32:41;;;;;;;4.22;1.80;;;;;;;6.61;69.71;62677.94;4963449;28;20240;-75
2022/10/19 01:35:12;;;;;;;6.45;1.90;;;;;;;6.48;70.33;62675.16;4954455;29;20556;-73
2022/10/19 01:37:46;;;;;;;1.90;1.75;;;;;;;6.64;69.91;62686.09;4964555;29;20216;-74
2022/10/19 01:40:24;;;;;;;3.00;1.50;;;;;;;6.56;70.70;62675.31;4963795;29;20239;-74
2022/10/19 01:43:01;;;;;;;2.22;2.13;;;;;;;6.53;71.21;62670.22;4955735;29;20259;-75
2022/10/19 01:45:36;;;;;;;3.58;2.40;;;;;;;6.55;71.14;62676.81;4949343;29;20196;-74
2022/10/19 01:48:06;;;;;;;2.08;1.98;;;;;;;6.47;71.36;62663.50;4964444;28;20223;-73
2022/10/19 01:50:38;;;;;;;1.45;1.20;;;;;;;6.45;70.67;62667.03;4963815;29;20201;-74
2022/10/19 01:53:07;;;;;;;1.80;1.70;;;;;;;6.38;71.32;62657.28;4948313;29;20229;-74
2022/10/19 01:55:37;;;;;;;2.05;1.95;;;;;;;6.38;71.02;62656.75;4965546;29;20222;-75
2022/10/19 01:58:09;;;;;;;2.00;1.90;;;;;;;6.31;71.20;62654.59;4962953;28;20213;-73
2022/10/19 02:00:40;;;;;;;1.77;1.67;;;;;;;6.30;71.51;62648.50;4961574;29;20229;-74
2022/10/19 02:03:10;;;;;;;3.95;1.83;;;;;;;6.30;71.36;62640.94;4958529;28;20224;-75
2022/10/19 02:05:38;;;;;;;4.43;1.90;;;;;;;6.23;71.51;62636.75;4962461;28;20235;-74
2022/10/19 02:08:10;;;;;;;3.33;1.50;;;;;;;6.18;70.79;62638.66;4962412;29;20235;-73
2022/10/19 02:10:39;;;;;;;2.15;2.00;;;;;;;6.07;70.89;62624.78;4965983;29;20522;-74
2022/10/19 02:13:08;;;;;;;1.98;1.77;;;;;;;6.10;70.61;62627.88;4965054;28;20226;-74
2022/10/19 02:15:38;;;;;;;4.25;1.90;;;;;;;6.07;70.45;62625.31;4948494;29;20205;-74
2022/10/19 02:18:07;;;;;;;1.92;1.83;;;;;;;6.01;70.65;62621.66;4964590;28;20571;-75
2022/10/19 02:20:36;;;;;;;2.08;1.90;;;;;;;6.00;70.95;62615.06;4965419;29;20228;-73
2022/10/19 02:23:04;;;;;;;2.47;2.28;;;;;;;6.02;70.56;62619.63;4961144;28;20233;-74
2022/10/19 02:25:31;;;;;;;3.80;2.13;;;;;;;6.02;70.82;62620.16;4963299;29;20228;-74
2022/10/19 02:28:00;;;;;;;2.08;1.92;;;;;;;6.00;70.92;62617.56;4964428;28;20224;-74
2022/10/19 02:30:27;;;;;;;2.47;2.28;;;;;;;6.03;70.86;62620.66;4965459;29;20275;-74
2022/10/19 02:32:55;;;;;;;1.10;1.10;;;;;;;5.99;70.19;62617.06;4956237;29;20224;-74
2022/10/19 02:35:22;;;;;;;2.03;1.92;;;;;;;6.00;70.94;62618.09;4960054;29;20520;-74
2022/10/19 02:37:49;;;;;;;2.50;1.90;;;;;;;6.00;70.92;62615.06;4964931;29;20224;-74
2022/10/19 02:40:16;;;;;;;2.67;1.80;;;;;;;5.90;71.90;62610.31;4964779;29;20404;-75
2022/10/19 02:42:48;;;;;;;2.78;1.60;;;;;;;5.87;71.81;62604.69;4953528;29;20252;-74
2022/10/19 02:45:22;;;;;;;1.58;1.48;;;;;;;5.80;71.58;62597.44;4963630;29;20205;-74
2022/10/19 02:47:54;;;;;;;1.98;1.88;;;;;;;5.83;71.15;62598.06;4966696;28;20263;-74
2022/10/19 02:50:23;;;;;;;1.60;1.50;;;;;;;5.83;71.25;62601.09;4959960;29;20381;-73
2022/10/19 02:52:49;;;;;;;4.28;1.63;;;;;;;5.79;71.14;62596.44;4955298;29;20545;-74
2022/10/19 02:55:16;;;;;;;1.70;1.60;;;;;;;5.81;70.64;62596.50;4964241;29;20207;-74
2022/10/19 02:57:43;;;;;;;1.90;1.73;;;;;;;5.75;72.88;62587.78;4964554;29;20264;-74
2022/10/19 03:00:11;;;;;;;2.03;1.27;;;;;;;5.81;72.34;62598.50;4953399;29;20665;-74
2022/10/19 03:02:38;;;;;;;1.70;1.60;;;;;;;5.72;72.25;62589.22;4964132;28;20354;-75
2022/10/19 03:05:05;;;;;;;5.10;1.77;;;;;;;5.74;72.50;62591.28;4964151;29;20209;-75
2022/10/19 03:07:33;;;;;;;3.90;2.03;;;;;;;5.69;70.57;62586.63;4964589;29;20224;-74
2022/10/19 03:10:00;;;;;;;2.30;1.73;;;;;;;5.71;69.69;62586.16;4947554;29;20514;-74
2022/10/19 03:12:27;;;;;;;3.15;2.00;;;;;;;5.84;69.90;62599.59;4962374;28;20229;-76
2022/10/19 03:14:54;;;;;;;2.15;1.83;;;;;;;5.84;69.70;62601.59;4964253;29;20204;-75
2022/10/19 03:17:21;;;;;;;2.20;2.10;;;;;;;5.90;70.65;62607.78;4965795;28;20447;-74
2022/10/19 03:19:48;;;;;;;3.83;1.90;;;;;;;5.96;71.87;62613.44;4966470;29;20209;-74
2022/10/19 03:22:15;;;;;;;4.13;2.15;;;;;;;6.07;72.41;62630.38;4968215;29;20283;-74
2022/10/19 03:24:43;;;;;;;1.60;1.60;;;;;;;6.14;72.78;62632.00;4968544;29;20504;-76
2022/10/19 03:27:10;;;;;;;1.75;1.63;;;;;;;6.08;72.92;62625.81;4963874;28;20216;-74
2022/10/19 03:29:37;;;;;;;2.90;1.70;;;;;;;6.07;73.08;62624.78;4966737;29;20208;-74
2022/10/19 03:32:04;;;;;;;2.15;1.95;;;;;;;6.02;73.11;62624.69;4968267;28;20205;-73
2022/10/19 03:34:31;;;;;;;5.18;2.30;;;;;;;6.00;73.46;62617.56;4968797;29;20239;-74
2022/10/19 03:36:58;;;;;;;2.17;2.03;;;;;;;6.01;72.94;62616.59;4966198;29;20251;-73
2022/10/19 03:39:25;;;;;;;2.97;2.53;;;;;;;6.01;72.89;62619.13;4966888;29;20221;-75
2022/10/19 03:41:54;;;;;;;5.40;2.70;;;;;;;6.00;72.75;62613.03;4967863;28;20451;-75
2022/10/19 03:44:21;;;;;;;2.70;2.20;;;;;;;5.97;72.74;62612.47;4966467;29;20220;-74
2022/10/19 03:46:47;;;;;;;3.80;2.65;;;;;;;5.96;72.41;62613.97;4964484;28;20707;-74
2022/10/19 03:49:14;;;;;;;4.45;2.63;;;;;;;5.93;72.85;62608.34;4967314;29;20248;-74
2022/10/19 03:51:41;;;;;;;2.78;2.58;;;;;;;5.93;72.87;62610.38;4969861;29;20200;-74
2022/10/19 03:54:12;;;;;;;5.07;2.70;;;;;;;5.91;73.15;62606.28;4965628;28;20525;-74
2022/10/19 03:56:39;;;;;;;8.30;2.40;;;;;;;5.90;73.25;62609.81;4965802;29;20236;-73
2022/10/19 03:59:07;;;;;;;6.68;2.88;;;;;;;5.79;74.68;62599.47;4966554;29;20221;-74
2022/10/19 04:01:36;;;;;;;3.38;3.08;;;;;;;5.81;73.62;62599.03;4966719;29;20230;-74
2022/10/19 04:04:05;;;;;;;5.38;3.05;;;;;;;5.77;73.48;62589.31;4953571;29;20224;-75
2022/10/19 04:06:34;;;;;;;6.68;2.60;;;;;;;5.82;72.37;62599.53;4963435;29;20197;-74
2022/10/19 04:09:01;;;;;;;2.78;2.53;;;;;;;5.74;73.42;62596.34;4969750;29;20280;-74
2022/10/19 04:11:30;;;;;;;2.97;2.28;;;;;;;5.74;73.63;62591.28;4963294;29;20206;-73
2022/10/19 04:13:58;;;;;;;3.60;2.45;;;;;;;5.71;75.10;62588.69;4958393;29;20229;-73
2022/10/19 04:16:28;;;;;;;2.50;2.28;;;;;;;5.68;74.62;62583.09;4967387;29;20201;-75
2022/10/19 04:18:55;;;;;;;3.92;3.13;;;;;;;5.60;74.82;62582.41;4965276;29;20252;-74
2022/10/19 04:21:24;;;;;;;2.83;2.58;;;;;;;5.66;74.13;62588.59;4966101;29;20279;-74
2022/10/19 04:23:52;;;;;;;3.58;2.33;;;;;;;5.77;73.28;62594.88;4967087;29;20308;-76
2022/10/19 04:26:19;;;;;;;2.22;2.05;;;;;;;5.75;72.78;62589.78;4965980;29;20243;-74
2022/10/19 04:28:46;;;;;;;2.33;2.10;;;;;;;5.75;72.20;62589.78;4964083;28;20235;-74
2022/10/19 04:31:13;;;;;;;1.90;1.80;;;;;;;5.80;72.55;62597.44;4965592;29;20515;-75
2022/10/19 04:33:42;;;;;;;10.13;2.50;;;;;;;5.78;73.23;62595.41;4965260;29;20533;-74
2022/10/19 04:36:12;;;;;;;6.72;2.58;;;;;;;5.77;74.17;62594.38;4966140;29;20400;-74
2022/10/19 04:38:39;;;;;;;5.00;2.50;;;;;;;5.75;74.52;62592.81;4965327;28;20557;-75
2022/10/19 04:41:08;;;;;;;5.07;2.58;;;;;;;5.71;75.17;62586.16;4964327;29;20232;-74
2022/10/19 04:43:35;;;;;;;3.03;2.70;;;;;;;5.74;75.27;62589.28;4966803;28;20235;-74
2022/10/19 04:46:04;;;;;;;4.25;2.90;;;;;;;5.65;75.53;62580.00;4965390;29;20207;-74
2022/10/19 04:48:31;;;;;;;3.38;3.08;;;;;;;5.63;75.88;62582.47;4965061;29;20243;-75
2022/10/19 04:50:59;;;;;;;7.35;3.45;;;;;;;5.58;76.18;62577.84;4964822;29;20510;-75
2022/10/19 04:53:27;;;;;;;5.05;3.33;;;;;;;5.61;76.17;62580.91;4966712;28;20237;-75
2022/10/19 04:55:53;;;;;;;4.40;3.03;;;;;;;5.59;76.27;62573.81;4966160;29;20205;-74
2022/10/19 04:58:21;;;;;;;4.15;2.88;;;;;;;5.54;76.77;62568.66;4959379;29;20446;-75
2022/10/19 05:00:47;;;;;;;3.40;3.10;;;;;;;5.53;76.89;62570.16;4963022;29;20201;-74
2022/10/19 05:03:15;;;;;;;2.95;2.72;;;;;;;5.50;77.31;62564.03;4964342;29;20228;-73
2022/10/19 05:05:42;;;;;;;2.85;2.08;;;;;;;5.56;77.44;62572.72;4963080;29;20201;-74
2022/10/19 05:08:11;;;;;;;5.15;3.00;;;;;;;5.74;75.69;62586.75;4966062;29;20231;-74
2022/10/19 05:10:38;;;;;;;10.27;3.72;;;;;;;5.73;75.80;62592.75;4966844;29;20223;-73
2022/10/19 05:13:05;;;;;;;10.05;3.17;;;;;;;5.73;76.43;62590.25;4964725;28;20292;-75
2022/10/19 05:15:32;;;;;;;8.85;4.30;;;;;;;5.74;76.70;62586.22;4959343;29;20201;-75
2022/10/19 05:17:59;;;;;;;6.57;3.92;;;;;;;5.80;76.75;62597.44;4964459;29;20236;-74
2022/10/19 05:20:26;;;;;;;5.43;3.60;;;;;;;5.92;76.96;62607.31;4965400;29;20205;-75
2022/10/19 05:22:53;;;;;;;5.72;4.35;;;;;;;5.91;77.01;62608.81;4963944;29;20312;-73
2022/10/19 05:25:21;;;;;;;5.68;4.05;;;;;;;5.94;77.07;62608.88;4956654;29;20205;-73
2022/10/19 05:27:51;;;;;;;4.60;4.10;;;;;;;6.02;77.20;62617.13;4958104;28;20228;-74
2022/10/19 05:30:20;;;;;;;6.82;3.83;;;;;;;6.13;77.56;62631.50;4969206;29;20212;-73
2022/10/19 05:32:47;;;;;;;3.85;3.35;;;;;;;6.23;76.76;62638.75;4964306;28;20223;-74
2022/10/19 05:35:15;;;;;;;4.15;3.35;;;;;;;6.31;75.89;62647.00;4970271;29;20211;-74
2022/10/19 05:37:42;;;;;;;7.78;3.85;;;;;;;6.35;75.83;62656.19;4971406;28;20212;-74
2022/10/19 05:40:10;;;;;;;5.20;3.45;;;;;;;6.49;75.21;62671.13;4968335;28;20557;-75
2022/10/19 05:42:39;;;;;;;5.97;3.58;;;;;;;6.79;70.49;62701.56;4966989;28;20241;-73
2022/10/19 05:45:08;;;;;;;12.00;3.53;;;;;;;6.83;74.45;62706.19;4974904;29;20207;-75
2022/10/19 05:47:35;;;;;;;7.05;4.18;;;;;;;6.87;74.19;62707.28;4955296;29;20430;-74
2022/10/19 05:50:02;;;;;;;4.93;4.32;;;;;;;6.96;74.39;62714.03;4957842;29;20231;-75
2022/10/19 05:52:29;;;;;;;6.13;4.22;;;;;;;7.15;73.61;62738.69;4964856;28;20212;-75
2022/10/19 05:54:57;;;;;;;8.07;4.47;;;;;;;7.25;70.57;62749.03;4961873;29;20208;-77
2022/10/19 05:57:27;;;;;;;8.00;5.20;;;;;;;7.18;71.27;62741.28;4972929;28;20223;-74
2022/10/19 05:59:57;;;;;;;6.95;4.75;;;;;;;7.30;71.42;62756.22;4949128;29;20209;-74
2022/10/19 06:02:23;;;;;;;10.95;6.05;;;;;;;7.38;71.68;62756.84;4963303;29;20232;-74
2022/10/19 06:04:50;;;;;;;12.82;5.93;;;;;;;7.38;72.45;62759.91;4960202;29;20248;-74
2022/10/19 06:07:17;;;;;;;12.52;6.00;;;;;;;7.39;73.20;62766.00;4969237;29;20232;-74
2022/10/19 06:09:44;;;;;;;22.73;5.53;;;;;;;7.42;73.11;62761.50;4963458;29;20205;-74
2022/10/19 06:12:11;;;;;;;9.45;5.57;;;;;;;7.49;72.59;62770.75;4962128;28;20612;-75
2022/10/19 06:14:38;;;;;;;7.78;5.28;;;;;;;7.58;73.89;62780.56;4958962;28;20407;-74
2022/10/19 06:17:07;;;;;;;8.55;6.18;;;;;;;7.49;75.68;62776.31;4964515;28;20264;-73
2022/10/19 06:19:33;;;;;;;16.67;5.80;;;;;;;7.50;75.85;62772.28;4963438;29;20212;-75
2022/10/19 06:22:00;;;;;;;11.88;6.30;;;;;;;7.54;73.47;62778.44;4958858;28;20236;-75
2022/10/19 06:24:27;;;;;;;9.38;5.72;;;;;;;7.61;73.98;62783.13;4963758;29;20223;-74
2022/10/19 06:26:54;;;;;;;19.00;7.65;;;;;;;7.54;74.44;62773.88;4968693;28;20399;-75
2022/10/19 06:29:21;;;;;;;14.18;7.85;;;;;;;7.64;74.07;62794.34;4962373;29;20211;-75
2022/10/19 06:31:53;;;;;;;20.40;8.25;;;;;;;7.70;74.44;62787.34;4964870;28;20201;-75
2022/10/19 06:34:21;;;;;;;14.07;8.15;;;;;;;7.80;74.99;62800.72;4964373;29;20201;-75
2022/10/19 06:36:48;;;;;;;17.27;7.80;;;;;;;7.94;74.63;62814.66;4967502;28;20243;-75
2022/10/19 06:39:15;;;;;;;18.00;8.82;;;;;;;8.03;73.49;62829.53;4968218;29;20255;-74
2022/10/19 06:41:42;;;;;;;12.55;7.55;;;;;;;8.11;73.15;62835.25;4963706;29;20232;-74
2022/10/19 06:44:09;;;;;;;13.57;7.80;;;;;;;8.18;71.77;62841.97;4965112;29;20221;-75
2022/10/19 06:46:36;;;;;;;22.13;8.38;;;;;;;8.26;70.85;62847.72;4974029;29;20213;-75
2022/10/19 06:49:03;;;;;;;18.98;7.65;;;;;;;8.42;70.54;62868.81;4964473;28;20229;-75
2022/10/19 06:51:32;;;;;;;22.38;8.02;;;;;;;8.43;71.60;62870.38;4962584;29;20200;-74
2022/10/19 06:54:01;;;;;;;17.25;8.45;;;;;;;8.46;74.24;62876.00;4974871;29;20259;-76
2022/10/19 06:56:28;;;;;;;30.50;9.35;;;;;;;8.64;74.02;62886.47;4963955;29;20211;-75
2022/10/19 06:58:55;;;;;;;16.23;9.00;;;;;;;8.71;73.20;62891.69;4967555;28;20281;-75
2022/10/19 07:01:22;;;;;;;20.50;8.80;;;;;;;8.81;72.58;62911.66;4968330;29;20259;-76
2022/10/19 07:03:51;;;;;;;26.13;8.93;;;;;;;8.82;71.56;62908.13;4963186;28;20222;-75
2022/10/19 07:06:18;;;;;;;18.52;8.73;;;;;;;8.98;70.79;62927.19;4968794;29;20205;-74
2022/10/19 07:08:47;;;;;;;22.23;8.85;;;;;;;9.16;69.25;62943.25;4968268;28;20220;-75
2022/10/19 07:11:16;;;;;;;15.60;8.05;;;;;;;9.28;69.26;62960.75;4967806;29;20201;-76
2022/10/19 07:13:42;;;;;;;23.13;9.35;;;;;;;9.38;67.83;62965.50;4963002;29;20217;-74
2022/10/19 07:16:11;;;;;;;17.23;7.90;;;;;;;9.70;71.00;63001.13;4967589;29;20197;-74
2022/10/19 07:18:39;;;;;;;19.75;8.32;;;;;;;9.81;67.06;63009.44;4967630;28;20275;-75
2022/10/19 07:21:09;;;;;;;20.90;8.98;;;;;;;9.88;63.82;63017.19;4960982;29;20225;-73
2022/10/19 07:23:37;;;;;;;10.02;7.10;;;;;;;9.98;63.62;63029.56;4960588;29;20549;-75
2022/10/19 07:26:08;;;;;;;14.55;7.97;;;;;;;10.10;61.79;63036.91;4967900;29;20205;-74
2022/10/19 07:28:35;;;;;;;14.88;7.28;;;;;;;10.18;60.21;63047.75;4958823;28;20260;-75
2022/10/19 07:31:06;;;;;;;12.32;7.00;;;;;;;10.20;60.16;63055.41;4965538;29;20216;-73
2022/10/19 07:33:33;;;;;;;11.55;7.25;;;;;;;10.33;60.13;63068.88;4966191;28;20369;-75
2022/10/19 07:36:01;;;;;;;20.88;8.07;;;;;;;10.42;58.52;63075.63;4967872;29;20212;-73
2022/10/19 07:38:28;;;;;;;15.77;8.18;;;;;;;10.55;61.67;63086.03;4963027;29;20248;-74
2022/10/19 07:41:08;;;;;;;19.40;7.72;;;;;;;10.66;59.14;63096.88;4957344;29;20208;-75
2022/10/19 07:43:35;;;;;;;20.35;8.45;;;;;;;10.75;59.51;63106.72;4968023;28;20225;-74
2022/10/19 07:46:04;;;;;;;11.52;7.55;;;;;;;10.88;58.12;63122.72;4966452;28;20213;-74
2022/10/19 07:48:30;;;;;;;23.67;8.43;;;;;;;10.95;56.96;63122.34;4957770;29;20227;-74
2022/10/19 07:50:57;;;;;;;13.02;7.18;;;;;;;10.98;56.15;63127.47;4964637;29;20205;-75
2022/10/19 07:53:25;;;;;;;16.90;7.00;;;;;;;11.13;55.24;63145.56;4959126;29;20232;-73
2022/10/19 07:55:51;;;;;;;11.20;7.03;;;;;;;10.99;55.99;63131.06;4962401;29;20212;-74
2022/10/19 07:58:20;;;;;;;13.23;7.82;;;;;;;11.15;56.12;63147.59;4965118;28;20545;-74
2022/10/19 08:00:47;;;;;;;17.23;7.20;;;;;;;11.22;55.73;63152.84;4966623;29;20208;-73
2022/10/19 08:03:13;;;;;;;11.95;7.78;;;;;;;11.34;55.75;63167.28;4954465;28;20249;-74
2022/10/19 08:05:40;;;;;;;17.15;9.10;;;;;;;11.41;55.92;63172.50;4959929;29;20225;-73
2022/10/19 08:08:07;;;;;;;10.90;8.02;;;;;;;11.54;55.17;63193.63;4964867;28;20233;-73
2022/10/19 08:10:34;;;;;;;17.13;7.90;;;;;;;11.67;55.01;63203.53;4968130;29;20438;-73
2022/10/19 08:13:01;;;;;;;15.73;8.55;;;;;;;11.86;54.44;63220.66;4967166;28;20220;-74
2022/10/19 08:15:31;;;;;;;16.70;8.10;;;;;;;11.97;54.51;63235.16;4968004;29;20208;-75
2022/10/19 08:17:58;;;;;;;12.10;7.97;;;;;;;12.03;53.02;63243.41;4966646;28;20256;-74
2022/10/19 08:20:25;;;;;;;10.52;7.95;;;;;;;12.11;53.67;63244.03;4967389;29;20201;-73
2022/10/19 08:22:52;;;;;;;15.50;8.75;;;;;;;12.19;53.39;63257.94;4969653;28;20247;-75
2022/10/19 08:25:18;;;;;;;12.15;8.20;;;;;;;12.18;53.21;63256.38;4961109;29;20201;-74
2022/10/19 08:27:45;;;;;;;13.82;8.98;;;;;;;12.31;53.20;63267.31;4964414;29;20312;-74
2022/10/19 08:30:12;;;;;;;17.30;9.65;;;;;;;12.46;53.15;63283.38;4967308;29;20193;-74
2022/10/19 08:32:40;;;;;;;15.18;8.25;;;;;;;12.75;51.97;63312.94;4967371;29;20228;-74
2022/10/19 08:35:08;;;;;;;21.58;9.88;;;;;;;12.82;52.12;63325.81;4965707;29;20223;-74
2022/10/19 08:37:34;;;;;;;12.70;8.57;;;;;;;12.84;51.01;63324.81;4967383;28;20232;-75
2022/10/19 08:40:01;;;;;;;10.57;8.50;;;;;;;12.96;50.99;63334.19;4965123;29;20219;-75
2022/10/19 08:42:39;;;;;;;12.95;8.82;;;;;;;13.17;50.95;63356.50;4966897;29;20275;-74
2022/10/19 08:45:22;;;;;;;15.10;8.90;;;;;;;13.19;50.94;63358.06;4965169;29;20204;-74
2022/10/19 08:48:02;;;;;;;16.23;9.05;;;;;;;13.54;49.58;63400.03;4947258;29;20312;-76
2022/10/19 08:50:37;;;;;;;13.38;8.85;;;;;;;13.41;49.06;63383.44;4948050;29;20201;-73
2022/10/19 08:53:06;;;;;;;14.52;9.13;;;;;;;13.58;49.47;63401.59;4961125;28;20259;-74
2022/10/19 08:55:44;;;;;;;20.40;9.82;;;;;;;13.89;49.44;63428.16;4966854;29;20209;-74
2022/10/19 08:58:27;;;;;;;17.35;9.85;;;;;;;14.07;48.11;63449.38;4967626;28;20220;-74
2022/10/19 09:01:00;;;;;;;14.57;8.55;;;;;;;14.00;47.57;63441.59;4956706;29;20450;-74
2022/10/19 09:03:38;;;;;;;13.38;8.23;;;;;;;14.22;47.91;63470.06;4962739;28;20241;-74
2022/10/19 09:06:19;;;;;;;11.73;7.45;;;;;;;14.37;47.71;63485.69;4967898;29;20420;-73
2022/10/19 09:08:46;;;;;;;14.35;6.47;;;;;;;14.61;47.60;63502.94;4966143;28;20373;-76
2022/10/19 09:11:15;;;;;;;10.77;5.57;;;;;;;14.72;46.19;63514.34;4957725;29;20212;-73
2022/10/19 09:13:44;;;;;;;8.10;5.68;;;;;;;14.95;45.97;63547.97;4966458;28;20450;-75
2022/10/19 09:16:13;;;;;;;7.60;4.57;;;;;;;15.11;45.70;63559.47;4966527;29;20196;-74
2022/10/19 09:18:43;;;;;;;11.35;5.22;;;;;;;15.28;45.36;63574.06;4959069;28;20221;-74
2022/10/19 09:21:15;;;;;;;6.88;5.43;;;;;;;15.33;45.70;63581.81;4959144;29;20266;-75
2022/10/19 09:23:47;;;;;;;10.55;4.68;;;;;;;15.50;45.52;63599.50;4966415;28;20298;-74
2022/10/19 09:26:17;;;;;;;8.30;4.35;;;;;;;15.41;45.26;63585.03;4966250;29;20347;-74
2022/10/19 09:28:51;;;;;;;3.67;3.35;;;;;;;15.56;45.10;63606.28;4963088;28;20220;-74
2022/10/19 09:31:24;;;;;;;10.73;4.38;;;;;;;15.49;45.43;63598.47;4966393;29;20208;-75
2022/10/19 09:33:59;;;;;;;8.52;3.67;;;;;;;15.81;44.26;63637.38;4966660;28;20232;-74
2022/10/19 09:36:42;;;;;;;4.72;3.40;;;;;;;15.92;44.05;63643.69;4965193;29;20206;-75
2022/10/19 09:39:12;;;;;;;9.65;4.10;;;;;;;16.05;44.52;63654.63;4965234;28;20232;-73
2022/10/19 09:41:46;;;;;;;3.50;3.20;;;;;;;16.04;44.51;63653.59;4965980;29;20207;-74
2022/10/19 09:44:13;;;;;;;5.20;3.05;;;;;;;16.19;44.04;63668.69;4965627;29;20230;-75
2022/10/19 09:46:50;;;;;;;4.93;3.60;;;;;;;16.10;43.74;63657.28;4964767;29;20227;-75
2022/10/19 09:49:19;;;;;;;3.80;3.50;;;;;;;16.10;43.86;63661.91;4954998;29;20232;-74
2022/10/19 09:51:51;;;;;;;3.25;2.92;;;;;;;15.91;43.33;63637.50;4963977;29;20204;-73
2022/10/19 09:54:31;;;;;;;5.38;3.20;;;;;;;16.10;43.69;63664.47;4964055;29;20211;-74
2022/10/19 09:56:58;;;;;;;2.97;2.78;;;;;;;16.26;42.45;63678.00;4962869;28;20204;-75
2022/10/19 09:59:30;;;;;;;4.13;3.25;;;;;;;16.12;42.86;63661.91;4957209;29;20200;-74
2022/10/19 10:02:10;;;;;;;2.45;2.30;;;;;;;15.84;42.64;63632.78;4965036;28;20200;-77
2022/10/19 10:04:38;;;;;;;4.45;3.35;;;;;;;15.96;43.13;63644.78;4963943;29;20199;-74
2022/10/19 10:07:05;;;;;;;7.95;3.13;;;;;;;16.02;42.85;63648.97;4962787;28;20402;-75
2022/10/19 10:09:39;;;;;;;3.30;2.97;;;;;;;16.04;42.99;63653.59;4964699;29;20203;-73
2022/10/19 10:12:07;;;;;;;3.72;3.00;;;;;;;16.21;42.70;63673.31;4964556;28;20440;-75
2022/10/19 10:14:38;;;;;;;3.22;2.38;;;;;;;16.46;42.12;63696.78;4954047;29;20204;-75
2022/10/19 10:17:08;;;;;;;9.73;4.35;;;;;;;16.41;41.87;63691.06;4965410;28;20208;-75
2022/10/19 10:19:36;;;;;;;5.75;2.92;;;;;;;16.57;41.45;63715.41;4963377;29;20437;-73
2022/10/19 10:22:04;;;;;;;3.45;3.15;;;;;;;16.53;41.49;63704.06;4963342;28;20493;-75
2022/10/19 10:24:33;;;;;;;3.13;2.92;;;;;;;16.34;40.92;63684.28;4963772;29;20291;-75
2022/10/19 10:27:02;;;;;;;8.10;2.95;;;;;;;16.34;41.44;63686.34;4967704;28;20196;-74
2022/10/19 10:29:31;;;;;;;3.20;3.00;;;;;;;16.22;41.45;63671.28;4966498;29;20200;-74
2022/10/19 10:32:01;;;;;;;2.90;2.67;;;;;;;16.46;40.47;63699.38;4967385;28;20211;-75
2022/10/19 10:34:34;;;;;;;3.40;2.80;;;;;;;16.64;39.91;63714.97;4950366;29;20292;-75
2022/10/19 10:37:05;;;;;;;3.40;3.03;;;;;;;16.88;38.92;63739.97;4950803;29;20196;-76
2022/10/19 10:39:33;;;;;;;3.67;3.03;;;;;;;17.00;38.27;63755.53;4950924;29;20200;-75
2022/10/19 10:42:09;;;;;;;2.70;2.50;;;;;;;17.12;37.26;63770.09;4963443;28;20200;-76
2022/10/19 10:44:38;;;;;;;2.88;2.65;;;;;;;17.03;36.25;63761.22;4967352;29;20231;-74
2022/10/19 10:47:13;;;;;;;5.70;2.58;;;;;;;16.88;36.28;63743.06;4968334;29;20242;-75
2022/10/19 10:49:42;;;;;;;4.53;2.53;;;;;;;17.07;35.44;63762.31;4969573;29;20378;-75
2022/10/19 10:52:14;;;;;;;2.20;2.10;;;;;;;17.10;35.29;63765.94;4966438;28;20228;-75
2022/10/19 10:54:41;;;;;;;5.57;2.75;;;;;;;17.14;35.35;63764.44;4968798;29;20235;-75
2022/10/19 10:57:14;;;;;;;5.45;2.60;;;;;;;17.13;33.93;63766.00;4969316;28;20231;-74
2022/10/19 10:59:50;;;;;;;4.13;2.10;;;;;;;17.20;35.23;63776.34;4967834;29;20227;-74
2022/10/19 11:02:35;;;;;;;2.40;2.30;;;;;;;17.42;34.21;63796.16;4967748;28;20235;-74
2022/10/19 11:05:07;;;;;;;3.00;2.47;;;;;;;17.55;34.44;63809.22;4968978;29;20204;-73
2022/10/19 11:07:36;;;;;;;3.28;2.88;;;;;;;17.40;34.30;63796.13;4969516;28;20387;-75
2022/10/19 11:10:08;;;;;;;3.03;2.53;;;;;;;17.56;33.98;63812.81;4965701;29;20206;-74
2022/10/19 11:12:39;;;;;;;2.63;2.28;;;;;;;17.63;34.34;63820.63;4971299;28;20224;-74
2022/10/19 11:15:16;;;;;;;4.72;2.50;;;;;;;17.65;34.57;63822.72;4966394;29;20385;-74
2022/10/19 11:17:55;;;;;;;3.38;2.78;;;;;;;17.63;33.55;63820.13;4966088;28;20278;-74
2022/10/19 11:20:26;;;;;;;3.67;2.75;;;;;;;17.80;33.40;63833.19;4951875;28;20256;-74
2022/10/19 11:23:03;;;;;;;3.58;2.75;;;;;;;18.02;31.47;63863.31;4947975;29;20232;-74
2022/10/19 11:25:41;;;;;;;3.88;2.30;;;;;;;18.13;31.82;63875.28;4929871;29;20205;-74
2022/10/19 11:28:32;;;;;;;2.80;2.60;;;;;;;18.16;33.07;63872.72;4941698;29;20256;-75
2022/10/19 11:31:10;;;;;;;5.68;2.50;;;;;;;17.94;32.66;63854.97;4949332;29;20203;-74
2022/10/19 11:33:51;;;;;;;3.92;2.08;;;;;;;18.21;32.93;63880.50;4946468;29;20264;-76
2022/10/19 11:36:35;;;;;;;4.45;2.60;;;;;;;18.00;31.89;63856.06;4945796;29;20236;-75
2022/10/19 11:39:21;;;;;;;2.67;2.35;;;;;;;17.98;31.68;63854.50;4947721;29;20236;-75
2022/10/19 11:42:00;;;;;;;3.35;2.67;;;;;;;18.20;31.14;63876.91;4949158;29;20200;-75
2022/10/19 11:44:38;;;;;;;3.35;2.42;;;;;;;18.32;31.46;63889.94;4947090;29;20244;-74
2022/10/19 11:47:22;;;;;;;3.97;2.53;;;;;;;18.54;31.70;63916.97;4947683;29;20240;-75
2022/10/19 11:50:01;;;;;;;2.25;2.05;;;;;;;18.37;31.95;63897.72;4947008;29;20196;-76